Ana Sayfa
METAR-TAF:

METAR-TAF

Havaalanları :

Schenck Field

Clarinda, Iowa, Amerika Birleşik Devletleri

Enlem: 40-43N, Boylam: 095-02W, yükseklik: 303 m

Güncel hava durumu gözlemi

Rapor saat 14:55 UTC de 33 dakika önce yapıldı.
Sakin rüzgar
Sıcaklık 24°C
Nem 89%
Basınç 1021 hPa
Görüş mesafesi: 14.5 km
Açık gökyüzü

METAR: KICL 241455Z AUTO 00000KT 9SM CLR 24/22 A3015 RMK AO2

Saat: 10:28 (15:28 UTC)


TAF: eksik

4.000'den fazla havaalanı için hava durumu gözlemleri ve tahminleri (METAR ve TAF raporları).

Kullanılabilir istasyonlar harita üzerinde sarı ve kırmızı noktalarla gösterilir.

İstasyonun adını görmek için fareyi noktanın üzerinde gezdirin.

Sonrasında hava gözlem ve tahminlerini görmek için tıklayın.

Haritayı değiştirmek için: yaklaştırmak için siyah artı işaretli yeşil düğmeye ve uzaklaştırmak için de eksi işaretli düğmeye hızla tıklayın; bitişik haritalar için yeşil okları kullanın.


METAR-TAF: